createdAt,value
2018-08-30T00:00:27.602Z,97206.88
2018-08-30T00:05:22.420Z,97203.90
2018-08-30T00:10:17.245Z,97207.84
2018-08-30T00:15:12.087Z,97213.32
2018-08-30T00:20:07.028Z,97207.68
2018-08-30T00:25:01.853Z,97212.33
2018-08-30T00:29:56.741Z,97203.70
2018-08-30T00:34:51.573Z,97209.02
2018-08-30T00:39:46.472Z,97211.84
2018-08-30T00:44:41.426Z,97212.36
2018-08-30T00:49:36.205Z,97216.34
2018-08-30T00:54:31.045Z,97227.16
2018-08-30T00:59:25.841Z,97226.77
2018-08-30T01:04:20.736Z,97231.44
2018-08-30T01:09:15.543Z,97235.06
2018-08-30T01:14:10.371Z,97242.84
2018-08-30T01:19:05.200Z,97242.13
2018-08-30T01:24:00.134Z,97240.23
2018-08-30T01:28:55.026Z,97255.29
2018-08-30T01:33:49.998Z,97258.68
2018-08-30T01:38:44.942Z,97264.72
2018-08-30T01:43:39.794Z,97274.84
2018-08-30T01:48:34.599Z,97268.34
2018-08-30T01:53:29.477Z,97273.52
2018-08-30T01:58:24.286Z,97264.09
2018-08-30T02:03:19.142Z,97263.80
2018-08-30T02:08:13.979Z,97256.80
2018-08-30T02:13:08.922Z,97264.89
2018-08-30T02:18:03.769Z,97271.27
2018-08-30T02:22:58.603Z,97265.09
2018-08-30T02:27:53.406Z,97265.72
2018-08-30T02:32:48.362Z,97257.52
2018-08-30T02:37:43.152Z,97259.08
2018-08-30T02:42:37.961Z,97261.44
2018-08-30T02:47:32.789Z,97261.27
2018-08-30T02:52:28.492Z,97265.05
2018-08-30T02:57:23.351Z,97271.76
2018-08-30T03:02:18.149Z,97278.86
2018-08-30T03:07:13.149Z,97273.58
2018-08-30T03:12:08.166Z,97275.64
2018-08-30T03:17:03.005Z,97274.90
2018-08-30T03:21:57.890Z,97278.16
2018-08-30T03:26:52.683Z,97278.33
2018-08-30T03:31:47.454Z,97286.84
2018-08-30T03:36:42.218Z,97286.17
2018-08-30T03:41:37.126Z,97273.45
2018-08-30T03:46:32.028Z,97274.44
2018-08-30T03:51:26.822Z,97276.92
2018-08-30T03:56:21.658Z,97275.14
2018-08-30T04:01:16.465Z,97273.73
2018-08-30T04:06:11.425Z,97279.63
2018-08-30T04:11:06.234Z,97279.45
2018-08-30T04:16:01.014Z,97282.03
2018-08-30T04:20:55.823Z,97272.48
2018-08-30T04:25:50.635Z,97279.84
2018-08-30T04:30:45.462Z,97276.09
2018-08-30T04:35:40.259Z,97284.64
2018-08-30T04:40:35.161Z,97287.87
2018-08-30T04:45:30.047Z,97289.81
2018-08-30T04:50:24.876Z,97294.29
2018-08-30T04:55:19.673Z,97290.77
2018-08-30T05:00:14.578Z,97299.98
2018-08-30T05:05:09.402Z,97305.19
2018-08-30T05:10:04.329Z,97305.03
2018-08-30T05:14:59.129Z,97317.41
2018-08-30T05:19:53.914Z,97314.05
2018-08-30T05:24:48.735Z,97323.30
2018-08-30T05:29:43.647Z,97334.17
2018-08-30T05:34:38.606Z,97337.34
2018-08-30T05:39:33.630Z,97344.08
2018-08-30T05:44:28.565Z,97341.19
2018-08-30T05:49:23.455Z,97352.45
2018-08-30T05:54:18.359Z,97351.45
2018-08-30T05:59:13.270Z,97357.32
2018-08-30T06:04:09.121Z,97368.04
2018-08-30T06:09:05.153Z,97367.70
2018-08-30T06:14:00.296Z,97363.52
2018-08-30T06:18:55.314Z,97365.19
2018-08-30T06:23:50.349Z,97374.56
2018-08-30T06:28:45.375Z,97375.45
2018-08-30T06:33:40.793Z,97386.99
2018-08-30T06:38:35.765Z,97386.50
2018-08-30T06:43:30.655Z,97392.59
2018-08-30T06:48:25.644Z,97402.05
2018-08-30T06:53:20.495Z,97398.27
2018-08-30T06:58:15.428Z,97398.81
2018-08-30T07:03:10.301Z,97400.23
2018-08-30T07:08:05.283Z,97402.41
2018-08-30T07:13:00.101Z,97409.47
2018-08-30T07:17:54.947Z,97407.91
2018-08-30T07:22:49.835Z,97418.73
2018-08-30T07:27:44.721Z,97410.94
2018-08-30T07:32:39.647Z,97422.73
2018-08-30T07:37:35.090Z,97421.11
2018-08-30T07:42:30.014Z,97425.52
2018-08-30T07:47:24.850Z,97421.71
2018-08-30T07:52:19.682Z,97431.24
2018-08-30T07:57:14.524Z,97436.30
2018-08-30T08:02:10.600Z,97435.73
2018-08-30T08:07:05.706Z,97434.23
2018-08-30T08:12:00.487Z,97433.88
2018-08-30T08:16:55.278Z,97442.39
2018-08-30T08:21:50.095Z,97446.15
2018-08-30T08:26:44.876Z,97445.37
2018-08-30T08:31:39.698Z,97453.70
2018-08-30T08:36:34.490Z,97450.63
2018-08-30T08:41:29.269Z,97452.54
2018-08-30T08:46:24.145Z,97442.27
2018-08-30T08:51:19.014Z,97455.13
2018-08-30T08:56:13.845Z,97461.13
2018-08-30T09:01:08.722Z,97468.61
2018-08-30T09:06:03.626Z,97465.73
2018-08-30T09:10:58.449Z,97465.33
2018-08-30T09:15:53.283Z,97467.52
2018-08-30T09:20:48.086Z,97466.49
2018-08-30T09:25:49.883Z,97473.56
2018-08-30T09:30:44.740Z,97474.54
2018-08-30T09:35:39.595Z,97472.38
2018-08-30T09:40:34.483Z,97474.30
2018-08-30T09:45:29.378Z,97471.35
2018-08-30T09:50:24.166Z,97471.66
2018-08-30T09:55:19.021Z,97477.39
2018-08-30T10:00:18.909Z,97476.20
2018-08-30T10:05:13.791Z,97474.86
2018-08-30T10:10:08.649Z,97475.20
2018-08-30T10:15:03.512Z,97473.20
2018-08-30T10:19:58.352Z,97471.33
2018-08-30T10:24:53.278Z,97470.08
2018-08-30T10:29:48.110Z,97471.64
2018-08-30T10:34:42.961Z,97471.45
2018-08-30T10:39:37.845Z,97466.43
2018-08-30T10:44:32.712Z,97466.70
2018-08-30T10:49:27.633Z,97468.69
2018-08-30T10:54:22.387Z,97465.66
2018-08-30T10:59:17.223Z,97461.86
2018-08-30T11:04:12.184Z,97456.64
2018-08-30T11:09:09.129Z,97461.05
2018-08-30T11:14:03.907Z,97456.95
2018-08-30T11:18:58.855Z,97448.18
2018-08-30T11:23:53.752Z,97450.78
2018-08-30T11:28:48.685Z,97457.55
2018-08-30T11:33:43.475Z,97458.06
2018-08-30T11:38:38.365Z,97459.47
2018-08-30T11:43:33.170Z,97460.12
2018-08-30T11:48:28.433Z,97457.70
2018-08-30T11:53:23.319Z,97462.42
2018-08-30T11:58:18.098Z,97465.30
2018-08-30T12:03:12.985Z,97470.63
2018-08-30T12:08:08.837Z,97467.30
2018-08-30T12:13:03.595Z,97472.62
2018-08-30T12:17:58.417Z,97469.09
2018-08-30T12:22:53.282Z,97467.97
2018-08-30T12:27:48.071Z,97472.14
2018-08-30T12:32:42.951Z,97467.47
2018-08-30T12:37:37.876Z,97466.80
2018-08-30T12:42:32.761Z,97472.11
2018-08-30T12:47:27.598Z,97471.78
2018-08-30T12:52:22.974Z,97468.30
2018-08-30T12:57:17.809Z,97460.20
2018-08-30T13:02:12.735Z,97451.53
2018-08-30T13:07:08.181Z,97450.73
2018-08-30T13:12:03.201Z,97443.08
2018-08-30T13:16:58.475Z,97447.47
2018-08-30T13:21:53.569Z,97444.86
2018-08-30T13:26:48.584Z,97433.33
2018-08-30T13:31:44.183Z,97430.45
2018-08-30T13:36:38.853Z,97428.57
2018-08-30T13:41:33.957Z,97420.40
2018-08-30T13:46:28.606Z,97420.30
2018-08-30T13:51:23.628Z,97422.63
2018-08-30T13:56:18.670Z,97426.49
2018-08-30T14:01:13.724Z,97421.39
2018-08-30T14:06:08.061Z,97413.59
2018-08-30T14:11:03.137Z,97417.36
2018-08-30T14:15:57.489Z,97409.69
2018-08-30T14:20:52.448Z,97413.78
2018-08-30T14:25:47.352Z,97416.58
2018-08-30T14:30:42.230Z,97415.57
2018-08-30T14:35:37.234Z,97412.38
2018-08-30T14:40:32.228Z,97410.94
2018-08-30T14:45:26.927Z,97415.09
2018-08-30T14:50:21.880Z,97411.91
2018-08-30T14:55:16.707Z,97409.23
2018-08-30T15:00:11.548Z,97410.63
2018-08-30T15:05:07.074Z,97409.59
2018-08-30T15:10:01.862Z,97412.92
2018-08-30T15:14:56.966Z,97417.52
2018-08-30T15:19:51.859Z,97412.84
2018-08-30T15:24:46.639Z,97415.88
2018-08-30T15:29:41.514Z,97412.98
2018-08-30T15:34:36.359Z,97416.87
2018-08-30T15:39:31.268Z,97409.05
2018-08-30T15:44:26.098Z,97412.22
2018-08-30T15:49:20.937Z,97413.41
2018-08-30T15:54:15.785Z,97409.41
2018-08-30T15:59:10.687Z,97415.95
2018-08-30T16:04:05.530Z,97417.58
2018-08-30T16:09:00.378Z,97414.27
2018-08-30T16:13:55.230Z,97408.83
2018-08-30T16:18:50.133Z,97401.83
2018-08-30T16:23:44.912Z,97409.83
2018-08-30T16:28:39.730Z,97411.33
2018-08-30T16:33:34.646Z,97411.83
2018-08-30T16:38:29.535Z,97414.02
2018-08-30T16:43:24.378Z,97413.33
2018-08-30T16:48:19.226Z,97410.95
2018-08-30T16:53:14.239Z,97400.30
2018-08-30T16:58:08.885Z,97406.13
2018-08-30T17:03:04.159Z,97409.77
2018-08-30T17:07:59.571Z,97396.42
2018-08-30T17:12:54.382Z,97404.72
2018-08-30T17:17:49.257Z,97408.37
2018-08-30T17:22:44.124Z,97401.82
2018-08-30T17:27:39.016Z,97400.31
2018-08-30T17:32:33.843Z,97393.42
2018-08-30T17:37:28.681Z,97399.55
2018-08-30T17:42:23.493Z,97396.63
2018-08-30T17:47:18.288Z,97395.93
2018-08-30T17:52:13.126Z,97387.79
2018-08-30T17:57:07.970Z,97402.37
2018-08-30T18:02:02.867Z,97407.97
2018-08-30T18:06:57.812Z,97414.88
2018-08-30T18:11:52.732Z,97417.49
2018-08-30T18:16:47.631Z,97419.19
2018-08-30T18:21:42.678Z,97419.69
2018-08-30T18:26:37.489Z,97417.08
2018-08-30T18:31:32.403Z,97415.83
2018-08-30T18:36:27.230Z,97411.84
2018-08-30T18:41:22.197Z,97424.63
2018-08-30T18:46:17.182Z,97429.08
2018-08-30T18:51:12.070Z,97432.40
2018-08-30T18:56:07.093Z,97442.12
2018-08-30T19:01:02.011Z,97446.80
2018-08-30T19:05:57.307Z,97441.95
2018-08-30T19:10:52.194Z,97447.75
2018-08-30T19:15:51.965Z,97451.58
2018-08-30T19:20:46.823Z,97449.95
2018-08-30T19:25:41.642Z,97451.62
2018-08-30T19:30:36.482Z,97449.63
2018-08-30T19:35:36.522Z,97442.61
2018-08-30T19:40:36.326Z,97439.30
2018-08-30T19:45:31.546Z,97436.17
2018-08-30T19:50:26.728Z,97441.41
2018-08-30T19:55:21.588Z,97455.97
2018-08-30T20:00:16.463Z,97454.05
2018-08-30T20:05:11.355Z,97453.48
2018-08-30T20:10:07.181Z,97441.38
2018-08-30T20:15:02.050Z,97443.91
2018-08-30T20:19:56.922Z,97435.34
2018-08-30T20:24:51.767Z,97430.27
2018-08-30T20:29:46.700Z,97436.78
2018-08-30T20:34:41.483Z,97431.97
2018-08-30T20:39:36.295Z,97431.71
2018-08-30T20:44:31.112Z,97427.84
2018-08-30T20:49:25.931Z,97423.14
2018-08-30T20:54:20.842Z,97422.64
2018-08-30T20:59:15.649Z,97424.47
2018-08-30T21:04:10.508Z,97413.23
2018-08-30T21:09:07.646Z,97423.97
2018-08-30T21:14:02.552Z,97415.83
2018-08-30T21:18:57.816Z,97409.20
2018-08-30T21:23:52.673Z,97398.59
2018-08-30T21:28:47.613Z,97394.45
2018-08-30T21:33:42.465Z,97404.00
2018-08-30T21:38:37.273Z,97396.93
2018-08-30T21:43:32.189Z,97383.52
2018-08-30T21:48:27.005Z,97383.95
2018-08-30T21:53:21.868Z,97378.97
2018-08-30T21:58:16.983Z,97379.14
2018-08-30T22:03:11.808Z,97377.04
2018-08-30T22:08:06.767Z,97374.98
2018-08-30T22:13:01.614Z,97368.93
2018-08-30T22:17:56.505Z,97370.80
2018-08-30T22:22:51.301Z,97378.81
2018-08-30T22:27:46.117Z,97368.88
2018-08-30T22:32:40.927Z,97371.52
2018-08-30T22:37:35.947Z,97368.77
2018-08-30T22:42:30.818Z,97356.94
2018-08-30T22:47:25.614Z,97358.50
2018-08-30T22:52:20.434Z,97359.65
2018-08-30T22:57:15.238Z,97361.58
2018-08-30T23:02:10.082Z,97357.33
2018-08-30T23:07:05.048Z,97357.05
2018-08-30T23:11:59.901Z,97344.78
2018-08-30T23:16:54.741Z,97341.25
2018-08-30T23:21:49.566Z,97345.66
2018-08-30T23:26:44.394Z,97345.92
2018-08-30T23:31:39.229Z,97348.47
2018-08-30T23:36:34.045Z,97349.25
2018-08-30T23:41:28.841Z,97343.89
2018-08-30T23:46:23.693Z,97345.38
2018-08-30T23:51:18.661Z,97339.20
2018-08-30T23:56:13.540Z,97335.89
